logo
Search for airport 
image banner adimage banner adimage banner ad
image banner ad

FAHZ - Hotazel

Located in , South Africa

ICAO - , IATA -

Data provided by Airmate  

General information

Coordinates: S27°12'51" E22°56'51"
Elevation is 3474 feet MSL.
 
View others Airports in Northern Cape

Operational data

Special qualification required
Current time UTC:
Current local time:
Weather at : - ( 0 km )
METAR: KXER 230340Z AUTO 06011KT 10SM CLR 19/11 A3018 RMK A01
View NOTAMs / SUP AIP / TFR affecting this airport [VIEW]
Communications frequencies: [VIEW]

Runways:

Airport contact information

Address: South Africa

Satellite view of FAHZ